sensor_id;sensor_type;location;lat;lon;timestamp;pressure;altitude;pressure_sealevel;temperature;humidity
11314;BME280;5712;48.858;9.206;2023-05-21T00:00:06;97755.88;;;16.72;100.00
11314;BME280;5712;48.858;9.206;2023-05-21T00:02:35;97753.06;;;16.73;100.00
11314;BME280;5712;48.858;9.206;2023-05-21T00:05:01;97752.59;;;16.60;100.00
11314;BME280;5712;48.858;9.206;2023-05-21T00:07:28;97755.72;;;16.56;100.00
11314;BME280;5712;48.858;9.206;2023-05-21T00:09:55;97752.13;;;16.47;100.00
11314;BME280;5712;48.858;9.206;2023-05-21T00:12:23;97760.28;;;16.46;100.00
11314;BME280;5712;48.858;9.206;2023-05-21T00:14:50;97755.50;;;16.49;100.00
11314;BME280;5712;48.858;9.206;2023-05-21T00:17:16;97754.97;;;16.46;100.00
11314;BME280;5712;48.858;9.206;2023-05-21T00:19:43;97749.66;;;16.36;100.00
11314;BME280;5712;48.858;9.206;2023-05-21T00:22:09;97751.94;;;16.31;100.00
11314;BME280;5712;48.858;9.206;2023-05-21T00:24:36;97745.22;;;16.27;100.00
11314;BME280;5712;48.858;9.206;2023-05-21T00:27:02;97747.50;;;16.22;100.00
11314;BME280;5712;48.858;9.206;2023-05-21T00:29:30;97735.47;;;16.18;100.00
11314;BME280;5712;48.858;9.206;2023-05-21T00:31:57;97735.22;;;16.12;100.00
11314;BME280;5712;48.858;9.206;2023-05-21T00:34:23;97730.47;;;16.06;100.00
11314;BME280;5712;48.858;9.206;2023-05-21T00:36:50;97738.34;;;16.08;100.00
11314;BME280;5712;48.858;9.206;2023-05-21T00:39:19;97732.16;;;16.07;100.00
11314;BME280;5712;48.858;9.206;2023-05-21T00:41:46;97727.53;;;16.09;100.00
11314;BME280;5712;48.858;9.206;2023-05-21T00:44:13;97729.19;;;16.10;100.00
11314;BME280;5712;48.858;9.206;2023-05-21T00:46:42;97729.34;;;16.08;100.00
11314;BME280;5712;48.858;9.206;2023-05-21T00:49:09;97733.00;;;16.08;100.00
11314;BME280;5712;48.858;9.206;2023-05-21T00:51:36;97715.75;;;16.02;100.00
11314;BME280;5712;48.858;9.206;2023-05-21T00:54:03;97717.06;;;15.98;100.00
11314;BME280;5712;48.858;9.206;2023-05-21T00:56:29;97718.00;;;16.07;100.00
11314;BME280;5712;48.858;9.206;2023-05-21T00:58:56;97720.13;;;16.03;100.00
11314;BME280;5712;48.858;9.206;2023-05-21T01:01:23;97719.41;;;16.01;100.00
11314;BME280;5712;48.858;9.206;2023-05-21T01:03:53;97717.59;;;16.02;100.00
11314;BME280;5712;48.858;9.206;2023-05-21T01:06:21;97713.72;;;15.96;100.00
11314;BME280;5712;48.858;9.206;2023-05-21T01:08:48;97716.81;;;15.92;100.00
11314;BME280;5712;48.858;9.206;2023-05-21T01:11:16;97717.94;;;15.89;100.00
11314;BME280;5712;48.858;9.206;2023-05-21T01:13:45;97720.25;;;15.84;100.00
11314;BME280;5712;48.858;9.206;2023-05-21T01:16:12;97717.41;;;15.86;100.00
11314;BME280;5712;48.858;9.206;2023-05-21T01:18:39;97716.72;;;15.84;100.00
11314;BME280;5712;48.858;9.206;2023-05-21T01:21:10;97709.59;;;15.84;100.00
11314;BME280;5712;48.858;9.206;2023-05-21T01:23:39;97712.97;;;15.77;100.00
11314;BME280;5712;48.858;9.206;2023-05-21T01:26:05;97719.13;;;15.77;100.00
11314;BME280;5712;48.858;9.206;2023-05-21T01:28:32;97714.25;;;15.73;100.00
11314;BME280;5712;48.858;9.206;2023-05-21T01:31:01;97711.91;;;15.70;100.00
11314;BME280;5712;48.858;9.206;2023-05-21T01:33:35;97705.84;;;15.68;100.00
11314;BME280;5712;48.858;9.206;2023-05-21T01:36:08;97703.78;;;15.62;100.00
11314;BME280;5712;48.858;9.206;2023-05-21T01:38:41;97700.44;;;15.60;100.00
11314;BME280;5712;48.858;9.206;2023-05-21T01:41:10;97709.69;;;15.56;100.00
11314;BME280;5712;48.858;9.206;2023-05-21T01:43:40;97709.88;;;15.54;100.00
11314;BME280;5712;48.858;9.206;2023-05-21T01:46:09;97704.38;;;15.56;100.00
11314;BME280;5712;48.858;9.206;2023-05-21T01:48:38;97713.06;;;15.58;100.00
11314;BME280;5712;48.858;9.206;2023-05-21T01:51:05;97703.69;;;15.54;100.00
11314;BME280;5712;48.858;9.206;2023-05-21T01:53:32;97703.41;;;15.57;100.00
11314;BME280;5712;48.858;9.206;2023-05-21T01:56:00;97701.34;;;15.51;100.00
11314;BME280;5712;48.858;9.206;2023-05-21T01:58:27;97697.41;;;15.45;100.00
11314;BME280;5712;48.858;9.206;2023-05-21T02:00:54;97694.31;;;15.50;100.00
11314;BME280;5712;48.858;9.206;2023-05-21T02:03:24;97691.28;;;15.45;100.00
11314;BME280;5712;48.858;9.206;2023-05-21T02:05:50;97695.47;;;15.38;100.00
11314;BME280;5712;48.858;9.206;2023-05-21T02:08:17;97691.53;;;15.42;100.00
11314;BME280;5712;48.858;9.206;2023-05-21T02:10:44;97701.66;;;15.38;100.00
11314;BME280;5712;48.858;9.206;2023-05-21T02:13:12;97693.81;;;15.37;100.00
11314;BME280;5712;48.858;9.206;2023-05-21T02:15:39;97701.34;;;15.32;100.00
11314;BME280;5712;48.858;9.206;2023-05-21T02:18:05;97689.88;;;15.31;100.00
11314;BME280;5712;48.858;9.206;2023-05-21T02:20:32;97698.31;;;15.27;100.00
11314;BME280;5712;48.858;9.206;2023-05-21T02:22:59;97691.84;;;15.29;100.00
11314;BME280;5712;48.858;9.206;2023-05-21T02:25:25;97694.94;;;15.25;100.00
11314;BME280;5712;48.858;9.206;2023-05-21T02:27:52;97698.03;;;15.20;100.00
11314;BME280;5712;48.858;9.206;2023-05-21T02:30:22;97697.75;;;15.14;100.00
11314;BME280;5712;48.858;9.206;2023-05-21T02:32:48;97690.06;;;15.11;100.00
11314;BME280;5712;48.858;9.206;2023-05-21T02:35:15;97689.66;;;15.06;100.00
11314;BME280;5712;48.858;9.206;2023-05-21T02:37:41;97686.31;;;15.04;100.00
11314;BME280;5712;48.858;9.206;2023-05-21T02:40:09;97681.81;;;15.04;100.00
11314;BME280;5712;48.858;9.206;2023-05-21T02:42:36;97683.25;;;14.99;100.00
11314;BME280;5712;48.858;9.206;2023-05-21T02:45:05;97683.25;;;14.99;100.00
11314;BME280;5712;48.858;9.206;2023-05-21T02:47:33;97686.34;;;14.94;100.00
11314;BME280;5712;48.858;9.206;2023-05-21T02:50:00;97684.13;;;14.90;100.00
11314;BME280;5712;48.858;9.206;2023-05-21T02:52:27;97689.72;;;14.87;100.00
11314;BME280;5712;48.858;9.206;2023-05-21T02:54:53;97691.69;;;14.85;100.00
11314;BME280;5712;48.858;9.206;2023-05-21T02:57:20;97693.63;;;14.83;100.00
11314;BME280;5712;48.858;9.206;2023-05-21T02:59:46;97693.09;;;14.79;100.00
11314;BME280;5712;48.858;9.206;2023-05-21T03:02:13;97701.22;;;14.78;100.00
11314;BME280;5712;48.858;9.206;2023-05-21T03:04:41;97692.25;;;14.79;100.00
11314;BME280;5712;48.858;9.206;2023-05-21T03:07:10;97686.94;;;14.79;100.00
11314;BME280;5712;48.858;9.206;2023-05-21T03:09:38;97681.88;;;14.76;100.00
11314;BME280;5712;48.858;9.206;2023-05-21T03:12:05;97687.34;;;14.74;100.00
11314;BME280;5712;48.858;9.206;2023-05-21T03:14:31;97683.19;;;14.72;100.00
11314;BME280;5712;48.858;9.206;2023-05-21T03:16:58;97676.44;;;14.68;100.00
11314;BME280;5712;48.858;9.206;2023-05-21T03:21:55;97676.91;;;14.54;100.00
11314;BME280;5712;48.858;9.206;2023-05-21T03:24:21;97672.53;;;14.53;100.00
11314;BME280;5712;48.858;9.206;2023-05-21T03:26:48;97665.13;;;14.56;100.00
11314;BME280;5712;48.858;9.206;2023-05-21T03:29:15;97674.63;;;14.49;100.00
11314;BME280;5712;48.858;9.206;2023-05-21T03:31:41;97665.41;;;14.44;100.00
11314;BME280;5712;48.858;9.206;2023-05-21T03:34:08;97678.72;;;14.44;100.00
11314;BME280;5712;48.858;9.206;2023-05-21T03:36:34;97679.28;;;14.38;100.00
11314;BME280;5712;48.858;9.206;2023-05-21T03:39:02;97670.19;;;14.40;100.00
11314;BME280;5712;48.858;9.206;2023-05-21T03:41:29;97665.84;;;14.39;100.00
11314;BME280;5712;48.858;9.206;2023-05-21T03:43:56;97674.38;;;14.43;100.00
11314;BME280;5712;48.858;9.206;2023-05-21T03:46:22;97668.78;;;14.36;100.00
11314;BME280;5712;48.858;9.206;2023-05-21T03:48:49;97664.56;;;14.34;100.00
11314;BME280;5712;48.858;9.206;2023-05-21T03:51:15;97665.00;;;14.29;100.00
11314;BME280;5712;48.858;9.206;2023-05-21T03:53:42;97668.63;;;14.28;100.00
11314;BME280;5712;48.858;9.206;2023-05-21T03:56:09;97672.16;;;14.29;100.00
11314;BME280;5712;48.858;9.206;2023-05-21T03:58:36;97676.63;;;14.28;100.00
11314;BME280;5712;48.858;9.206;2023-05-21T04:01:03;97672.41;;;14.26;100.00
11314;BME280;5712;48.858;9.206;2023-05-21T04:03:29;97676.63;;;14.28;100.00
11314;BME280;5712;48.858;9.206;2023-05-21T04:05:57;97682.91;;;14.27;100.00
11314;BME280;5712;48.858;9.206;2023-05-21T04:08:23;97679.41;;;14.27;100.00
11314;BME280;5712;48.858;9.206;2023-05-21T04:10:50;97680.13;;;14.29;100.00
11314;BME280;5712;48.858;9.206;2023-05-21T04:13:18;97679.97;;;14.30;100.00
11314;BME280;5712;48.858;9.206;2023-05-21T04:15:44;97689.63;;;14.31;100.00
11314;BME280;5712;48.858;9.206;2023-05-21T04:18:11;97693.25;;;14.30;100.00
11314;BME280;5712;48.858;9.206;2023-05-21T04:20:39;97691.56;;;14.29;100.00
11314;BME280;5712;48.858;9.206;2023-05-21T04:23:06;97694.78;;;14.33;100.00
11314;BME280;5712;48.858;9.206;2023-05-21T04:25:32;97705.44;;;14.33;100.00
11314;BME280;5712;48.858;9.206;2023-05-21T04:27:59;97708.22;;;14.31;100.00
11314;BME280;5712;48.858;9.206;2023-05-21T04:30:26;97711.88;;;14.30;100.00
11314;BME280;5712;48.858;9.206;2023-05-21T04:32:53;97705.16;;;14.36;100.00
11314;BME280;5712;48.858;9.206;2023-05-21T04:35:20;97712.97;;;14.37;100.00
11314;BME280;5712;48.858;9.206;2023-05-21T04:37:47;97708.22;;;14.41;100.00
11314;BME280;5712;48.858;9.206;2023-05-21T04:40:14;97706.53;;;14.40;100.00
11314;BME280;5712;48.858;9.206;2023-05-21T04:42:42;97713.53;;;14.41;100.00
11314;BME280;5712;48.858;9.206;2023-05-21T04:45:09;97722.22;;;14.43;100.00
11314;BME280;5712;48.858;9.206;2023-05-21T04:47:37;97717.47;;;14.46;100.00
11314;BME280;5712;48.858;9.206;2023-05-21T04:50:05;97708.25;;;14.50;100.00
11314;BME280;5712;48.858;9.206;2023-05-21T04:52:32;97708.38;;;14.49;100.00
11314;BME280;5712;48.858;9.206;2023-05-21T04:54:59;97719.44;;;14.54;100.00
11314;BME280;5712;48.858;9.206;2023-05-21T04:57:25;97715.25;;;14.61;100.00
11314;BME280;5712;48.858;9.206;2023-05-21T04:59:52;97718.88;;;14.60;100.00
11314;BME280;5712;48.858;9.206;2023-05-21T05:02:18;97716.63;;;14.65;100.00
11314;BME280;5712;48.858;9.206;2023-05-21T05:04:46;97718.03;;;14.69;100.00
11314;BME280;5712;48.858;9.206;2023-05-21T05:07:13;97725.75;;;14.72;100.00
11314;BME280;5712;48.858;9.206;2023-05-21T05:09:39;97723.06;;;14.72;100.00
11314;BME280;5712;48.858;9.206;2023-05-21T05:12:06;97717.47;;;14.75;100.00
11314;BME280;5712;48.858;9.206;2023-05-21T05:14:33;97720.66;;;14.78;100.00
11314;BME280;5712;48.858;9.206;2023-05-21T05:16:59;97715.78;;;14.83;100.00
11314;BME280;5712;48.858;9.206;2023-05-21T05:19:26;97716.06;;;14.90;100.00
11314;BME280;5712;48.858;9.206;2023-05-21T05:21:53;97720.22;;;14.92;100.00
11314;BME280;5712;48.858;9.206;2023-05-21T05:24:20;97722.75;;;14.94;100.00
11314;BME280;5712;48.858;9.206;2023-05-21T05:26:46;97711.66;;;14.98;100.00
11314;BME280;5712;48.858;9.206;2023-05-21T05:29:13;97717.16;;;14.97;100.00
11314;BME280;5712;48.858;9.206;2023-05-21T05:31:39;97710.41;;;15.02;100.00
11314;BME280;5712;48.858;9.206;2023-05-21T05:34:06;97713.63;;;15.06;100.00
11314;BME280;5712;48.858;9.206;2023-05-21T05:36:32;97711.66;;;15.08;100.00
11314;BME280;5712;48.858;9.206;2023-05-21T05:39:00;97721.44;;;15.17;100.00
11314;BME280;5712;48.858;9.206;2023-05-21T05:41:27;97719.59;;;15.27;100.00
11314;BME280;5712;48.858;9.206;2023-05-21T05:43:53;97716.22;;;15.25;100.00
11314;BME280;5712;48.858;9.206;2023-05-21T05:46:20;97720.16;;;15.30;100.00
11314;BME280;5712;48.858;9.206;2023-05-21T05:48:46;97718.22;;;15.32;100.00
11314;BME280;5712;48.858;9.206;2023-05-21T05:51:13;97723.09;;;15.37;100.00
11314;BME280;5712;48.858;9.206;2023-05-21T05:53:41;97721.81;;;15.41;100.00
11314;BME280;5712;48.858;9.206;2023-05-21T05:56:09;97730.91;;;15.48;100.00
11314;BME280;5712;48.858;9.206;2023-05-21T05:58:35;97719.94;;;15.60;100.00
11314;BME280;5712;48.858;9.206;2023-05-21T06:01:02;97721.97;;;15.76;100.00
11314;BME280;5712;48.858;9.206;2023-05-21T06:03:28;97717.34;;;15.95;100.00
11314;BME280;5712;48.858;9.206;2023-05-21T06:05:55;97715.56;;;16.13;100.00
11314;BME280;5712;48.858;9.206;2023-05-21T06:08:21;97719.91;;;16.41;100.00
11314;BME280;5712;48.858;9.206;2023-05-21T06:10:48;97715.78;;;16.64;100.00
11314;BME280;5712;48.858;9.206;2023-05-21T06:13:16;97714.47;;;16.85;100.00
11314;BME280;5712;48.858;9.206;2023-05-21T06:15:43;97716.56;;;16.99;100.00
11314;BME280;5712;48.858;9.206;2023-05-21T06:18:09;97710.84;;;17.12;100.00
11314;BME280;5712;48.858;9.206;2023-05-21T06:20:36;97710.88;;;17.20;100.00
11314;BME280;5712;48.858;9.206;2023-05-21T06:23:02;97715.84;;;17.15;100.00
11314;BME280;5712;48.858;9.206;2023-05-21T06:25:30;97716.88;;;17.22;100.00
11314;BME280;5712;48.858;9.206;2023-05-21T06:27:57;97718.38;;;17.16;100.00
11314;BME280;5712;48.858;9.206;2023-05-21T06:30:24;97715.16;;;17.13;100.00
11314;BME280;5712;48.858;9.206;2023-05-21T06:32:51;97710.13;;;17.10;100.00
11314;BME280;5712;48.858;9.206;2023-05-21T06:35:17;97722.84;;;17.16;100.00
11314;BME280;5712;48.858;9.206;2023-05-21T06:37:44;97719.19;;;17.17;100.00
11314;BME280;5712;48.858;9.206;2023-05-21T06:40:11;97716.25;;;17.28;99.87
11314;BME280;5712;48.858;9.206;2023-05-21T06:42:37;97719.31;;;17.33;99.55
11314;BME280;5712;48.858;9.206;2023-05-21T06:45:05;97714.28;;;17.55;98.23
11314;BME280;5712;48.858;9.206;2023-05-21T06:47:33;97713.00;;;17.67;97.44
11314;BME280;5712;48.858;9.206;2023-05-21T06:49:59;97703.78;;;17.95;95.86
11314;BME280;5712;48.858;9.206;2023-05-21T06:52:26;97706.81;;;18.08;93.73
11314;BME280;5712;48.858;9.206;2023-05-21T06:54:52;97711.19;;;18.17;91.85
11314;BME280;5712;48.858;9.206;2023-05-21T06:57:19;97709.50;;;18.16;90.55
11314;BME280;5712;48.858;9.206;2023-05-21T06:59:45;97716.22;;;18.12;90.27
11314;BME280;5712;48.858;9.206;2023-05-21T07:02:12;97710.16;;;18.10;91.55
11314;BME280;5712;48.858;9.206;2023-05-21T07:04:39;97710.78;;;17.96;91.64
11314;BME280;5712;48.858;9.206;2023-05-21T07:07:06;97716.44;;;17.93;91.75
11314;BME280;5712;48.858;9.206;2023-05-21T07:09:32;97718.63;;;17.90;92.76
11314;BME280;5712;48.858;9.206;2023-05-21T07:11:59;97725.47;;;17.92;92.88
11314;BME280;5712;48.858;9.206;2023-05-21T07:14:26;97726.50;;;17.99;93.24
11314;BME280;5712;48.858;9.206;2023-05-21T07:16:52;97719.53;;;18.06;93.19
11314;BME280;5712;48.858;9.206;2023-05-21T07:19:19;97707.19;;;18.21;89.42
11314;BME280;5712;48.858;9.206;2023-05-21T07:21:47;97710.53;;;18.23;89.10
11314;BME280;5712;48.858;9.206;2023-05-21T07:24:14;97721.22;;;18.23;88.96
11314;BME280;5712;48.858;9.206;2023-05-21T07:26:41;97718.63;;;18.31;88.65
11314;BME280;5712;48.858;9.206;2023-05-21T07:29:07;97722.25;;;18.30;87.76
11314;BME280;5712;48.858;9.206;2023-05-21T07:31:34;97725.66;;;18.32;87.44
11314;BME280;5712;48.858;9.206;2023-05-21T07:34:00;97719.31;;;18.41;87.63
11314;BME280;5712;48.858;9.206;2023-05-21T07:36:27;97714.66;;;18.51;88.46
11314;BME280;5712;48.858;9.206;2023-05-21T07:38:55;97725.69;;;18.64;88.79
11314;BME280;5712;48.858;9.206;2023-05-21T07:41:21;97715.00;;;18.80;87.95
11314;BME280;5712;48.858;9.206;2023-05-21T07:43:48;97714.50;;;18.93;87.52
11314;BME280;5712;48.858;9.206;2023-05-21T07:46:14;97716.84;;;19.04;86.65
11314;BME280;5712;48.858;9.206;2023-05-21T07:48:41;97719.84;;;19.17;86.79
11314;BME280;5712;48.858;9.206;2023-05-21T07:51:08;97706.97;;;19.36;85.99
11314;BME280;5712;48.858;9.206;2023-05-21T07:53:34;97694.38;;;19.45;83.49
11314;BME280;5712;48.858;9.206;2023-05-21T07:56:02;97694.88;;;19.48;83.48
11314;BME280;5712;48.858;9.206;2023-05-21T07:58:29;97700.69;;;19.68;83.29
11314;BME280;5712;48.858;9.206;2023-05-21T08:00:56;97682.00;;;19.82;78.33
11314;BME280;5712;48.858;9.206;2023-05-21T08:03:25;97686.66;;;19.88;77.18
11314;BME280;5712;48.858;9.206;2023-05-21T08:05:51;97693.81;;;20.04;78.15
11314;BME280;5712;48.858;9.206;2023-05-21T08:08:19;97693.94;;;20.18;79.42
11314;BME280;5712;48.858;9.206;2023-05-21T08:10:46;97701.59;;;20.29;78.46
11314;BME280;5712;48.858;9.206;2023-05-21T08:13:14;97703.88;;;20.40;79.11
11314;BME280;5712;48.858;9.206;2023-05-21T08:15:41;97688.78;;;20.39;77.37
11314;BME280;5712;48.858;9.206;2023-05-21T08:18:08;97692.75;;;20.43;77.76
11314;BME280;5712;48.858;9.206;2023-05-21T08:20:34;97691.88;;;20.51;77.74
11314;BME280;5712;48.858;9.206;2023-05-21T08:23:01;97682.22;;;20.64;76.12
11314;BME280;5712;48.858;9.206;2023-05-21T08:25:28;97692.09;;;20.72;75.70
11314;BME280;5712;48.858;9.206;2023-05-21T08:27:55;97696.19;;;20.82;76.31
11314;BME280;5712;48.858;9.206;2023-05-21T08:30:23;97694.63;;;20.96;76.05
11314;BME280;5712;48.858;9.206;2023-05-21T08:32:49;97688.25;;;21.11;75.16
11314;BME280;5712;48.858;9.206;2023-05-21T08:35:16;97692.44;;;21.28;74.13
11314;BME280;5712;48.858;9.206;2023-05-21T08:37:42;97679.09;;;21.35;71.29
11314;BME280;5712;48.858;9.206;2023-05-21T08:40:10;97669.41;;;21.48;69.79
11314;BME280;5712;48.858;9.206;2023-05-21T08:42:42;97670.03;;;21.36;68.70
11314;BME280;5712;48.858;9.206;2023-05-21T08:45:10;97672.88;;;21.34;69.06
11314;BME280;5712;48.858;9.206;2023-05-21T08:47:40;97695.69;;;21.38;74.16
11314;BME280;5712;48.858;9.206;2023-05-21T08:50:09;97682.56;;;21.43;71.01
11314;BME280;5712;48.858;9.206;2023-05-21T08:52:36;97674.31;;;21.45;68.91
11314;BME280;5712;48.858;9.206;2023-05-21T08:55:03;97660.41;;;21.41;66.55
11314;BME280;5712;48.858;9.206;2023-05-21T08:57:31;97673.56;;;21.36;70.13
11314;BME280;5712;48.858;9.206;2023-05-21T08:59:57;97686.53;;;21.47;70.95
11314;BME280;5712;48.858;9.206;2023-05-21T09:02:24;97684.31;;;21.51;69.04
11314;BME280;5712;48.858;9.206;2023-05-21T09:04:52;97676.44;;;21.49;69.42
11314;BME280;5712;48.858;9.206;2023-05-21T09:07:23;97650.75;;;21.61;64.42
11314;BME280;5712;48.858;9.206;2023-05-21T09:09:54;97653.78;;;21.58;65.07
11314;BME280;5712;48.858;9.206;2023-05-21T09:12:21;97677.81;;;21.60;67.31
11314;BME280;5712;48.858;9.206;2023-05-21T09:14:48;97672.91;;;21.63;66.59
11314;BME280;5712;48.858;9.206;2023-05-21T09:17:15;97657.25;;;21.67;64.16
11314;BME280;5712;48.858;9.206;2023-05-21T09:22:22;97691.31;;;21.74;70.15
11314;BME280;5712;48.858;9.206;2023-05-21T09:24:50;97694.34;;;21.86;69.36
11314;BME280;5712;48.858;9.206;2023-05-21T09:27:17;97696.41;;;21.84;69.84
11314;BME280;5712;48.858;9.206;2023-05-21T09:29:44;97701.41;;;21.87;70.47
11314;BME280;5712;48.858;9.206;2023-05-21T09:32:10;97682.09;;;21.83;67.94
11314;BME280;5712;48.858;9.206;2023-05-21T09:34:37;97669.94;;;21.87;64.75
11314;BME280;5712;48.858;9.206;2023-05-21T09:37:05;97678.03;;;21.87;66.82
11314;BME280;5712;48.858;9.206;2023-05-21T09:39:33;97698.69;;;22.01;68.89
11314;BME280;5712;48.858;9.206;2023-05-21T09:42:00;97672.34;;;22.11;65.99
11314;BME280;5712;48.858;9.206;2023-05-21T09:44:26;97684.66;;;22.20;66.87
11314;BME280;5712;48.858;9.206;2023-05-21T09:46:55;97689.19;;;22.34;66.50
11314;BME280;5712;48.858;9.206;2023-05-21T09:49:23;97670.97;;;22.36;64.71
11314;BME280;5712;48.858;9.206;2023-05-21T09:51:53;97676.53;;;22.49;64.43
11314;BME280;5712;48.858;9.206;2023-05-21T09:54:21;97663.78;;;22.58;63.23
11314;BME280;5712;48.858;9.206;2023-05-21T09:56:50;97653.34;;;22.69;62.09
11314;BME280;5712;48.858;9.206;2023-05-21T09:59:16;97656.84;;;22.70;61.73
11314;BME280;5712;48.858;9.206;2023-05-21T10:01:43;97661.91;;;22.79;63.34
11314;BME280;5712;48.858;9.206;2023-05-21T10:04:10;97637.47;;;22.81;60.07
11314;BME280;5712;48.858;9.206;2023-05-21T10:06:41;97647.28;;;22.88;60.90
11314;BME280;5712;48.858;9.206;2023-05-21T10:09:09;97669.84;;;23.08;63.06
11314;BME280;5712;48.858;9.206;2023-05-21T10:11:36;97629.09;;;23.18;57.40
11314;BME280;5712;48.858;9.206;2023-05-21T10:14:08;97623.16;;;23.08;57.46
11314;BME280;5712;48.858;9.206;2023-05-21T10:16:36;97642.00;;;23.01;59.68
11314;BME280;5712;48.858;9.206;2023-05-21T10:19:04;97619.22;;;23.04;56.31
11314;BME280;5712;48.858;9.206;2023-05-21T10:21:35;97629.75;;;22.99;56.69
11314;BME280;5712;48.858;9.206;2023-05-21T10:24:02;97644.94;;;23.06;59.00
11314;BME280;5712;48.858;9.206;2023-05-21T10:26:29;97646.13;;;23.18;59.55
11314;BME280;5712;48.858;9.206;2023-05-21T10:28:56;97669.53;;;23.45;63.62
11314;BME280;5712;48.858;9.206;2023-05-21T10:31:25;97618.53;;;23.50;56.46
11314;BME280;5712;48.858;9.206;2023-05-21T10:33:53;97607.31;;;23.53;56.33
11314;BME280;5712;48.858;9.206;2023-05-21T10:36:20;97611.97;;;23.72;55.66
11314;BME280;5712;48.858;9.206;2023-05-21T10:38:47;97635.50;;;23.85;57.82
11314;BME280;5712;48.858;9.206;2023-05-21T10:41:14;97640.63;;;24.07;58.14
11314;BME280;5712;48.858;9.206;2023-05-21T10:44:01;97609.50;;;24.11;55.10
11314;BME280;5712;48.858;9.206;2023-05-21T10:46:46;97639.84;;;24.26;58.33
11314;BME280;5712;48.858;9.206;2023-05-21T10:52:05;97585.03;;;24.26;53.04
11314;BME280;5712;48.858;9.206;2023-05-21T10:54:51;97570.03;;;24.17;51.51
11314;BME280;5712;48.858;9.206;2023-05-21T10:57:56;97625.84;;;24.03;56.60
11314;BME280;5712;48.858;9.206;2023-05-21T11:00:27;97614.88;;;24.11;56.71
11314;BME280;5712;48.858;9.206;2023-05-21T11:02:57;97589.78;;;24.17;54.02
11314;BME280;5712;48.858;9.206;2023-05-21T11:05:40;97587.94;;;24.31;53.82
11314;BME280;5712;48.858;9.206;2023-05-21T11:08:23;97606.66;;;24.45;55.76
11314;BME280;5712;48.858;9.206;2023-05-21T11:10:51;97606.03;;;24.56;54.71
11314;BME280;5712;48.858;9.206;2023-05-21T11:13:18;97584.22;;;24.51;52.95
11314;BME280;5712;48.858;9.206;2023-05-21T11:16:05;97559.31;;;24.62;50.45
11314;BME280;5712;48.858;9.206;2023-05-21T11:19:01;97594.00;;;24.52;53.49
11314;BME280;5712;48.858;9.206;2023-05-21T11:21:29;97611.47;;;24.50;55.37
11314;BME280;5712;48.858;9.206;2023-05-21T11:23:59;97624.97;;;24.50;57.17
11314;BME280;5712;48.858;9.206;2023-05-21T11:26:58;97621.44;;;24.56;56.43
11314;BME280;5712;48.858;9.206;2023-05-21T11:29:34;97590.72;;;24.57;52.95
11314;BME280;5712;48.858;9.206;2023-05-21T11:32:05;97598.75;;;24.50;53.72
11314;BME280;5712;48.858;9.206;2023-05-21T11:34:38;97553.25;;;24.41;50.21
11314;BME280;5712;48.858;9.206;2023-05-21T11:37:25;97578.56;;;24.27;52.27
11314;BME280;5712;48.858;9.206;2023-05-21T11:39:53;97611.63;;;24.35;54.66
11314;BME280;5712;48.858;9.206;2023-05-21T11:42:27;97603.53;;;24.35;54.55
11314;BME280;5712;48.858;9.206;2023-05-21T11:44:55;97655.50;;;24.50;59.93
11314;BME280;5712;48.858;9.206;2023-05-21T11:47:22;97586.09;;;24.51;54.03
11314;BME280;5712;48.858;9.206;2023-05-21T11:49:51;97572.16;;;24.47;52.72
11314;BME280;5712;48.858;9.206;2023-05-21T11:52:18;97582.16;;;24.53;53.26
11314;BME280;5712;48.858;9.206;2023-05-21T11:54:46;97566.56;;;24.55;51.00
11314;BME280;5712;48.858;9.206;2023-05-21T11:57:15;97579.28;;;24.61;52.64
11314;BME280;5712;48.858;9.206;2023-05-21T11:59:43;97636.47;;;24.71;58.69
11314;BME280;5712;48.858;9.206;2023-05-21T12:02:13;97628.78;;;24.75;57.35
11314;BME280;5712;48.858;9.206;2023-05-21T12:04:40;97567.84;;;24.72;51.40
11314;BME280;5712;48.858;9.206;2023-05-21T12:07:09;97552.44;;;24.53;51.28
11314;BME280;5712;48.858;9.206;2023-05-21T12:09:38;97582.16;;;24.53;52.79
11314;BME280;5712;48.858;9.206;2023-05-21T12:12:05;97591.13;;;24.60;53.70
11314;BME280;5712;48.858;9.206;2023-05-21T12:14:33;97591.94;;;24.61;53.31
11314;BME280;5712;48.858;9.206;2023-05-21T12:16:59;97598.63;;;24.71;53.93
11314;BME280;5712;48.858;9.206;2023-05-21T12:19:27;97588.44;;;24.86;52.95
11314;BME280;5712;48.858;9.206;2023-05-21T12:21:54;97541.22;;;24.82;49.03
11314;BME280;5712;48.858;9.206;2023-05-21T12:24:22;97556.41;;;24.77;50.44
11314;BME280;5712;48.858;9.206;2023-05-21T12:26:49;97539.16;;;24.71;49.00
11314;BME280;5712;48.858;9.206;2023-05-21T12:29:16;97571.38;;;24.66;51.14
11314;BME280;5712;48.858;9.206;2023-05-21T12:31:46;97579.22;;;24.55;52.71
11314;BME280;5712;48.858;9.206;2023-05-21T12:34:13;97570.28;;;24.48;51.26
11314;BME280;5712;48.858;9.206;2023-05-21T12:36:43;97561.13;;;24.49;51.16
11314;BME280;5712;48.858;9.206;2023-05-21T12:39:12;97552.84;;;24.50;50.52
11314;BME280;5712;48.858;9.206;2023-05-21T12:41:42;97550.97;;;24.51;50.42
11314;BME280;5712;48.858;9.206;2023-05-21T12:44:10;97584.22;;;24.51;53.63
11314;BME280;5712;48.858;9.206;2023-05-21T12:46:36;97602.72;;;24.54;54.92
11314;BME280;5712;48.858;9.206;2023-05-21T12:49:03;97609.44;;;24.58;55.95
11314;BME280;5712;48.858;9.206;2023-05-21T12:51:36;97622.72;;;24.66;56.03
11314;BME280;5712;48.858;9.206;2023-05-21T12:54:03;97597.16;;;24.69;54.48
11314;BME280;5712;48.858;9.206;2023-05-21T12:56:44;97640.84;;;24.72;57.65
11314;BME280;5712;48.858;9.206;2023-05-21T12:59:12;97617.34;;;24.79;56.54
11314;BME280;5712;48.858;9.206;2023-05-21T13:01:39;97611.50;;;24.82;55.55
11314;BME280;5712;48.858;9.206;2023-05-21T13:04:06;97611.50;;;24.89;55.88
11314;BME280;5712;48.858;9.206;2023-05-21T13:06:40;97605.25;;;24.88;54.47
11314;BME280;5712;48.858;9.206;2023-05-21T13:09:07;97610.69;;;24.95;55.05
11314;BME280;5712;48.858;9.206;2023-05-21T13:11:34;97587.38;;;25.00;53.69
11314;BME280;5712;48.858;9.206;2023-05-21T13:14:02;97620.84;;;25.12;56.76
11314;BME280;5712;48.858;9.206;2023-05-21T13:16:28;97630.66;;;25.13;56.86